Time;durP1;ratioP1;P1;durP2;ratioP2;P2;SDS_P1;SDS_P2;PMS_P1;PMS_P2;Temp;Humidity;BMP_temperature;BMP_pressure;BME280_temperature;BME280_humidity;BME280_pressure;Samples;Min_cycle;Max_cycle;Signal;HPM_P1;HPM_P2
2022/02/03 00:04:25;;;;;;;70.63;32.57;;;;;;;;;;4992451;28;20311;-74
2022/02/03 00:06:57;;;;;;;38.23;19.67;;;;;;;;;;4941534;28;20218;-74
2022/02/03 00:26:06;;;;;;;16.37;3.67;;;;;;;;;;4975873;28;20434;-73
2022/02/03 00:28:40;;;;;;;17.70;4.20;;;;;;;;;;4975115;28;20300;-74
2022/02/03 00:31:27;;;;;;;15.20;3.40;;;;;;;;;;4977123;28;20710;-75
2022/02/03 00:34:08;;;;;;;12.57;3.47;;;;;;;;;;4958216;28;20225;-73
2022/02/03 00:37:15;;;;;;;17.67;3.37;;;;;;;;;;4978000;28;20232;-73
2022/02/03 00:50:43;;;;;;;17.40;3.07;;;;;;;;;;4992985;28;20260;-73
2022/02/03 00:53:14;;;;;;;11.77;2.90;;;;;;;;;;4993072;28;20229;-75
2022/02/03 00:55:47;;;;;;;12.30;3.03;;;;;;;;;;4994261;28;20218;-73
2022/02/03 00:58:14;;;;;;;14.57;3.33;;;;;;;;;;4957510;28;20257;-73
2022/02/03 01:00:43;;;;;;;12.97;3.07;;;;;;;;;;4941230;28;20221;-74
2022/02/03 01:03:14;;;;;;;12.33;3.20;;;;;;;;;;4955819;28;20214;-74
2022/02/03 01:05:45;;;;;;;10.47;3.03;;;;;;;;;;4991717;28;20597;-72
2022/02/03 01:08:21;;;;;;;12.20;3.30;;;;;;;;;;4974606;28;20280;-75
2022/02/03 01:11:03;;;;;;;14.30;3.00;;;;;;;;;;4991395;28;20225;-75
2022/02/03 01:17:34;;;;;;;13.90;3.23;;;;;;;;;;4966835;28;20794;-73
2022/02/03 01:33:31;;;;;;;72.70;29.80;;;;;;;;;;4961302;28;20225;-74
2022/02/03 01:43:52;;;;;;;16.17;4.30;;;;;;;;;;4966285;28;20573;-74
2022/02/03 01:46:27;;;;;;;13.80;4.73;;;;;;;;;;4961384;28;20240;-74
2022/02/03 01:49:13;;;;;;;12.47;3.70;;;;;;;;;;4961264;28;20225;-74
2022/02/03 01:51:48;;;;;;;10.40;3.13;;;;;;;;;;4962300;28;20224;-73
2022/02/03 01:54:16;;;;;;;12.20;3.43;;;;;;;;;;4955974;28;20250;-73
2022/02/03 01:56:52;;;;;;;10.17;4.63;;;;;;;;;;4971774;28;20238;-74
2022/02/03 01:59:22;;;;;;;9.77;3.63;;;;;;;;;;4958508;28;20845;-74
2022/02/03 02:01:54;;;;;;;12.03;4.30;;;;;;;;;;4959026;28;20214;-74
2022/02/03 02:04:42;;;;;;;13.30;4.23;;;;;;;;;;4956555;28;20236;-74
2022/02/03 02:07:36;;;;;;;10.37;3.63;;;;;;;;;;4974076;28;20229;-74
2022/02/03 02:13:10;;;;;;;11.90;3.50;;;;;;;;;;4966900;28;20284;-74
2022/02/03 02:15:56;;;;;;;16.00;3.60;;;;;;;;;;4989806;28;20228;-74
2022/02/03 02:38:10;;;;;;;15.87;3.40;;;;;;;;;;4964972;28;20321;-75
2022/02/03 02:43:35;;;;;;;15.87;3.37;;;;;;;;;;4990433;28;20229;-75
2022/02/03 02:46:21;;;;;;;12.33;3.50;;;;;;;;;;4970677;28;20316;-74
2022/02/03 02:49:14;;;;;;;15.03;3.90;;;;;;;;;;4970862;28;20746;-75
2022/02/03 02:52:05;;;;;;;11.23;3.60;;;;;;;;;;4991477;28;20717;-75
2022/02/03 02:57:37;;;;;;;16.77;3.70;;;;;;;;;;4993690;28;20313;-74
2022/02/03 03:33:44;;;;;;;11.27;3.70;;;;;;;;;;4955253;28;20217;-75
2022/02/03 03:36:16;;;;;;;13.10;4.33;;;;;;;;;;4993530;28;20233;-75
2022/02/03 03:38:45;;;;;;;11.53;4.50;;;;;;;;;;4962556;28;20249;-75
2022/02/03 03:41:15;;;;;;;13.87;4.13;;;;;;;;;;4976409;28;20574;-74
2022/02/03 03:43:53;;;;;;;12.93;4.27;;;;;;;;;;4961088;28;20747;-74
2022/02/03 03:46:25;;;;;;;16.77;4.17;;;;;;;;;;4956826;28;20257;-74
2022/02/03 03:49:07;;;;;;;14.90;4.73;;;;;;;;;;4943035;28;20232;-75
2022/02/03 03:51:39;;;;;;;15.10;4.40;;;;;;;;;;4990669;28;20752;-74
2022/02/03 03:54:12;;;;;;;15.20;5.03;;;;;;;;;;4992383;28;20229;-74
2022/02/03 03:56:51;;;;;;;15.70;5.30;;;;;;;;;;4961247;28;20656;-74
2022/02/03 04:34:22;;;;;;;16.90;7.30;;;;;;;;;;4992681;28;20229;-72
2022/02/03 05:08:59;;;;;;;12.03;6.47;;;;;;;;;;4973339;28;20303;-73
2022/02/03 05:17:26;;;;;;;9.80;6.40;;;;;;;;;;4963419;28;20209;-72
2022/02/03 05:20:25;;;;;;;8.40;6.20;;;;;;;;;;4961363;28;20587;-72
2022/02/03 05:26:12;;;;;;;8.43;6.47;;;;;;;;;;4990808;28;20248;-72
2022/02/03 06:09:06;;;;;;;15.57;10.17;;;;;;;;;;4966510;28;20221;-76
2022/02/03 06:14:32;;;;;;;15.07;10.23;;;;;;;;;;4972701;28;20711;-75
2022/02/03 06:17:16;;;;;;;17.30;11.50;;;;;;;;;;4957503;28;20220;-75
2022/02/03 06:22:47;;;;;;;19.23;12.30;;;;;;;;;;4975487;28;20223;-76
2022/02/03 06:27:49;;;;;;;17.17;11.70;;;;;;;;;;4978097;28;20240;-75
2022/02/03 06:30:21;;;;;;;19.93;12.10;;;;;;;;;;4961617;28;20233;-73
2022/02/03 06:32:47;;;;;;;19.07;12.23;;;;;;;;;;4963667;28;20611;-74
2022/02/03 06:35:13;;;;;;;20.77;12.77;;;;;;;;;;4975758;28;20221;-73
2022/02/03 06:37:39;;;;;;;21.47;13.00;;;;;;;;;;4993976;28;20257;-74
2022/02/03 06:40:10;;;;;;;21.33;13.03;;;;;;;;;;4974384;28;20711;-73
2022/02/03 06:42:37;;;;;;;20.40;13.73;;;;;;;;;;4978589;28;20308;-74
2022/02/03 06:47:53;;;;;;;25.47;14.87;;;;;;;;;;4995338;28;20344;-73
2022/02/03 06:50:29;;;;;;;27.80;15.33;;;;;;;;;;4960751;28;20250;-73
2022/02/03 06:53:09;;;;;;;31.63;17.10;;;;;;;;;;4962134;28;20253;-73
2022/02/03 06:55:58;;;;;;;33.53;16.70;;;;;;;;;;4995413;28;20753;-73
2022/02/03 06:58:37;;;;;;;32.90;16.77;;;;;;;;;;4994655;28;20316;-73
2022/02/03 07:01:18;;;;;;;36.40;19.50;;;;;;;;;;4964087;28;20727;-73
2022/02/03 07:03:52;;;;;;;36.77;17.50;;;;;;;;;;4995299;28;20284;-74
2022/02/03 07:06:20;;;;;;;35.90;19.00;;;;;;;;;;4967586;28;20229;-74
2022/02/03 07:08:49;;;;;;;43.93;19.57;;;;;;;;;;4996732;28;20217;-73
2022/02/03 07:11:20;;;;;;;57.00;21.23;;;;;;;;;;4976161;28;20233;-74
2022/02/03 07:13:48;;;;;;;51.70;20.70;;;;;;;;;;4993614;28;20620;-73
2022/02/03 07:16:14;;;;;;;53.47;21.87;;;;;;;;;;4962061;28;20229;-74
2022/02/03 07:18:47;;;;;;;77.27;23.53;;;;;;;;;;4978333;28;20225;-74
2022/02/03 07:21:13;;;;;;;83.63;23.70;;;;;;;;;;4944603;28;20346;-74
2022/02/03 07:23:39;;;;;;;53.57;21.77;;;;;;;;;;4977171;28;20248;-74
2022/02/03 07:26:05;;;;;;;50.17;21.60;;;;;;;;;;4991372;28;20316;-74
2022/02/03 07:28:31;;;;;;;85.43;24.80;;;;;;;;;;4993970;28;20225;-74
2022/02/03 07:30:59;;;;;;;68.30;23.87;;;;;;;;;;4970701;28;20222;-74
2022/02/03 07:33:25;;;;;;;69.23;25.17;;;;;;;;;;4971427;28;20229;-74
2022/02/03 07:35:52;;;;;;;67.40;24.03;;;;;;;;;;4980490;28;20213;-73
2022/02/03 07:38:23;;;;;;;56.73;23.90;;;;;;;;;;4987215;28;20233;-74
2022/02/03 07:40:49;;;;;;;67.63;24.30;;;;;;;;;;4977822;28;20276;-74
2022/02/03 07:43:15;;;;;;;70.03;24.93;;;;;;;;;;4975527;28;20225;-74
2022/02/03 07:45:43;;;;;;;71.10;24.70;;;;;;;;;;4994121;28;20703;-74
2022/02/03 07:48:08;;;;;;;78.27;27.97;;;;;;;;;;4973507;28;20225;-73
2022/02/03 07:50:36;;;;;;;60.13;27.60;;;;;;;;;;4972057;28;20305;-73
2022/02/03 07:53:02;;;;;;;65.30;26.47;;;;;;;;;;4992078;28;20307;-74
2022/02/03 07:55:28;;;;;;;56.63;24.93;;;;;;;;;;4983166;28;20220;-74
2022/02/03 07:57:56;;;;;;;57.27;26.73;;;;;;;;;;5005470;28;20224;-73
2022/02/03 08:00:42;;;;;;;52.97;25.00;;;;;;;;;;4991263;28;20293;-74
2022/02/03 08:03:13;;;;;;;55.63;24.87;;;;;;;;;;4963653;28;20703;-74
2022/02/03 08:05:48;;;;;;;52.07;24.90;;;;;;;;;;4992275;28;20779;-74
2022/02/03 08:10:50;;;;;;;52.83;24.20;;;;;;;;;;4976430;28;20838;-74
2022/02/03 08:13:33;;;;;;;53.87;25.53;;;;;;;;;;4991974;28;20674;-74
2022/02/03 08:16:15;;;;;;;63.63;29.40;;;;;;;;;;4992337;28;20225;-74
2022/02/03 08:18:45;;;;;;;57.33;28.10;;;;;;;;;;4992634;28;20360;-75
2022/02/03 08:21:13;;;;;;;53.53;25.23;;;;;;;;;;4953949;28;20229;-74
2022/02/03 08:23:57;;;;;;;57.27;26.13;;;;;;;;;;4941682;28;20229;-75
2022/02/03 08:26:37;;;;;;;61.00;26.70;;;;;;;;;;4989071;28;20221;-74
2022/02/03 08:31:55;;;;;;;58.57;26.83;;;;;;;;;;4993020;28;20613;-75
2022/02/03 08:34:36;;;;;;;56.10;25.40;;;;;;;;;;4981436;28;20304;-75
2022/02/03 08:37:05;;;;;;;61.70;26.77;;;;;;;;;;4974052;28;20289;-73
2022/02/03 08:39:39;;;;;;;62.37;27.90;;;;;;;;;;4977431;28;20253;-75
2022/02/03 08:42:08;;;;;;;65.17;27.70;;;;;;;;;;5000789;28;20273;-74
2022/02/03 08:44:33;;;;;;;65.63;29.87;;;;;;;;;;4995007;28;20217;-75
2022/02/03 08:46:58;;;;;;;60.53;27.53;;;;;;;;;;4980038;28;20644;-74
2022/02/03 08:49:24;;;;;;;72.30;29.10;;;;;;;;;;5009275;28;20225;-74
2022/02/03 08:51:55;;;;;;;71.03;27.93;;;;;;;;;;4996005;28;20670;-74
2022/02/03 08:54:25;;;;;;;67.50;29.20;;;;;;;;;;4977374;28;20217;-75
2022/02/03 08:57:05;;;;;;;63.80;28.00;;;;;;;;;;4978304;28;20225;-75
2022/02/03 09:00:06;;;;;;;66.27;27.23;;;;;;;;;;4992866;28;20681;-74
2022/02/03 09:36:02;;;;;;;46.33;21.73;;;;;;;;;;4983136;28;20225;-74
2022/02/03 09:38:57;;;;;;;42.40;20.93;;;;;;;;;;4991777;28;20308;-73
2022/02/03 10:03:17;;;;;;;74.23;35.13;;;;;;;;;;4973660;28;20232;-74
2022/02/03 10:06:10;;;;;;;82.47;34.93;;;;;;;;;;4990410;28;20217;-74
2022/02/03 10:08:36;;;;;;;85.30;35.67;;;;;;;;;;4967845;28;20308;-75
2022/02/03 10:11:27;;;;;;;84.23;36.43;;;;;;;;;;4958333;28;20218;-74
2022/02/03 10:14:03;;;;;;;88.57;37.70;;;;;;;;;;4942112;28;20230;-74
2022/02/03 10:16:33;;;;;;;94.43;40.37;;;;;;;;;;4974947;28;20228;-74
2022/02/03 10:19:03;;;;;;;94.20;38.80;;;;;;;;;;4974677;28;20235;-74
2022/02/03 10:21:32;;;;;;;98.77;41.03;;;;;;;;;;4989944;28;20221;-74
2022/02/03 10:24:02;;;;;;;97.07;40.53;;;;;;;;;;4991320;28;20225;-74
2022/02/03 10:26:38;;;;;;;91.90;38.53;;;;;;;;;;4974718;28;20718;-73
2022/02/03 10:29:07;;;;;;;90.50;38.53;;;;;;;;;;4960451;28;20726;-73
2022/02/03 10:31:43;;;;;;;86.37;38.50;;;;;;;;;;4976434;28;20217;-74
2022/02/03 10:34:10;;;;;;;87.47;37.77;;;;;;;;;;4958614;28;20336;-73
2022/02/03 10:36:46;;;;;;;81.97;36.63;;;;;;;;;;4974794;28;20225;-73
2022/02/03 10:42:35;;;;;;;69.03;32.37;;;;;;;;;;4960633;28;20261;-73
2022/02/03 10:50:44;;;;;;;62.90;30.27;;;;;;;;;;4976568;28;20782;-74
2022/02/03 10:56:11;;;;;;;60.17;29.50;;;;;;;;;;4991133;28;20252;-74
2022/02/03 10:58:56;;;;;;;53.60;27.93;;;;;;;;;;4960135;28;20229;-73
2022/02/03 11:04:05;;;;;;;52.10;28.27;;;;;;;;;;4973956;28;20228;-74
2022/02/03 11:06:39;;;;;;;52.67;27.10;;;;;;;;;;4961441;28;20214;-76
2022/02/03 11:09:22;;;;;;;45.43;25.03;;;;;;;;;;4974909;28;20237;-76
2022/02/03 11:11:55;;;;;;;49.43;25.00;;;;;;;;;;4962955;28;20217;-75
2022/02/03 11:14:24;;;;;;;48.77;25.27;;;;;;;;;;4977313;28;20229;-75
2022/02/03 11:16:49;;;;;;;47.03;25.67;;;;;;;;;;4962196;28;20224;-74
2022/02/03 11:19:16;;;;;;;40.93;24.13;;;;;;;;;;4957450;28;20234;-74
2022/02/03 11:21:49;;;;;;;38.70;23.57;;;;;;;;;;4973898;28;20309;-74
2022/02/03 11:24:28;;;;;;;40.17;23.77;;;;;;;;;;4989887;28;20229;-74
2022/02/03 11:37:45;;;;;;;35.47;21.90;;;;;;;;;;4960772;28;20226;-74
2022/02/03 12:02:43;;;;;;;21.13;15.60;;;;;;;;;;4976031;28;20214;-75
2022/02/03 12:19:20;;;;;;;15.93;12.13;;;;;;;;;;4992367;28;20229;-74
2022/02/03 12:22:36;;;;;;;17.90;13.00;;;;;;;;;;4979528;28;20285;-74
2022/02/03 12:25:11;;;;;;;17.30;12.20;;;;;;;;;;4973213;28;20337;-76
2022/02/03 12:28:07;;;;;;;15.93;11.47;;;;;;;;;;4974193;28;20700;-73
2022/02/03 12:30:52;;;;;;;15.20;11.50;;;;;;;;;;4959120;28;20313;-73
2022/02/03 12:38:48;;;;;;;15.20;11.83;;;;;;;;;;4968833;28;20305;-74
2022/02/03 12:41:22;;;;;;;13.13;10.77;;;;;;;;;;4993899;28;20229;-73
2022/02/03 12:44:02;;;;;;;12.50;10.47;;;;;;;;;;4976975;28;20256;-73
2022/02/03 12:46:30;;;;;;;14.57;10.43;;;;;;;;;;4963351;28;20228;-74
2022/02/03 12:49:01;;;;;;;15.30;10.83;;;;;;;;;;4993186;28;20221;-78
2022/02/03 12:51:29;;;;;;;12.77;10.27;;;;;;;;;;4959329;28;20710;-75
2022/02/03 12:53:57;;;;;;;15.03;10.07;;;;;;;;;;4994165;28;20223;-77
2022/02/03 12:56:24;;;;;;;12.60;10.40;;;;;;;;;;4960315;28;20241;-75
2022/02/03 12:58:58;;;;;;;13.60;10.33;;;;;;;;;;4992762;28;20237;-74
2022/02/03 13:01:32;;;;;;;14.00;9.87;;;;;;;;;;4991641;28;20271;-76
2022/02/03 13:04:04;;;;;;;13.43;10.53;;;;;;;;;;4993359;28;20222;-74
2022/02/03 13:06:31;;;;;;;12.93;10.90;;;;;;;;;;4984421;28;20296;-76
2022/02/03 13:09:00;;;;;;;15.20;10.50;;;;;;;;;;4975498;28;20232;-75
2022/02/03 13:11:51;;;;;;;13.17;10.07;;;;;;;;;;4956016;28;20222;-74
2022/02/03 13:14:30;;;;;;;13.10;10.03;;;;;;;;;;4960925;28;20226;-76
2022/02/03 13:17:02;;;;;;;11.17;9.43;;;;;;;;;;4977328;28;20217;-72
2022/02/03 13:19:45;;;;;;;13.27;10.33;;;;;;;;;;4975948;28;20229;-73
2022/02/03 13:22:19;;;;;;;15.93;12.17;;;;;;;;;;4961515;28;20229;-74
2022/02/03 13:27:50;;;;;;;15.80;12.00;;;;;;;;;;4987120;28;20221;-73
2022/02/03 13:30:52;;;;;;;11.40;9.67;;;;;;;;;;4990384;28;20265;-72
2022/02/03 13:33:24;;;;;;;10.10;8.50;;;;;;;;;;4988204;28;20216;-75
2022/02/03 13:36:02;;;;;;;11.67;9.77;;;;;;;;;;4988693;28;20229;-72
2022/02/03 13:38:43;;;;;;;13.67;9.23;;;;;;;;;;4975207;28;20240;-74
2022/02/03 13:41:19;;;;;;;12.60;9.47;;;;;;;;;;4956739;28;20230;-75
2022/02/03 13:43:45;;;;;;;13.07;8.73;;;;;;;;;;4971409;28;20264;-75
2022/02/03 13:46:28;;;;;;;10.50;8.47;;;;;;;;;;4973643;28;20275;-76
2022/02/03 13:48:55;;;;;;;10.63;8.40;;;;;;;;;;4957637;28;20248;-74
2022/02/03 13:51:29;;;;;;;13.07;9.23;;;;;;;;;;4974304;28;20229;-73
2022/02/03 14:16:12;;;;;;;11.20;9.03;;;;;;;;;;4974445;28;20225;-75
2022/02/03 14:29:27;;;;;;;10.07;8.97;;;;;;;;;;4984555;28;20229;-74
2022/02/03 14:32:05;;;;;;;10.47;9.27;;;;;;;;;;4958300;28;20702;-74
2022/02/03 14:34:35;;;;;;;11.60;9.30;;;;;;;;;;4982393;28;20216;-74
2022/02/03 14:40:14;;;;;;;11.13;8.60;;;;;;;;;;4987761;28;20676;-74
2022/02/03 14:42:21;;;;;;;11.33;8.50;;;;;;;;;;4963865;28;20240;-73
2022/02/03 14:44:47;;;;;;;9.73;8.23;;;;;;;;;;4955154;28;20242;-73
2022/02/03 14:47:12;;;;;;;9.80;8.80;;;;;;;;;;4984628;28;20762;-75
2022/02/03 14:49:41;;;;;;;10.70;8.77;;;;;;;;;;4942806;28;20233;-73
2022/02/03 14:52:21;;;;;;;9.33;8.10;;;;;;;;;;4976905;28;20304;-73
2022/02/03 15:00:15;;;;;;;9.73;8.70;;;;;;;;;;4976690;28;20233;-74
2022/02/03 15:02:41;;;;;;;9.53;8.27;;;;;;;;;;4977406;28;20359;-75
2022/02/03 15:05:12;;;;;;;9.97;8.00;;;;;;;;;;4993218;28;20233;-75
2022/02/03 15:07:42;;;;;;;8.97;8.07;;;;;;;;;;4962176;28;20225;-75
2022/02/03 15:10:41;;;;;;;11.07;8.63;;;;;;;;;;4961705;28;20234;-75
2022/02/03 15:15:34;;;;;;;9.73;8.70;;;;;;;;;;4993632;28;20271;-75
2022/02/03 15:17:59;;;;;;;11.00;9.60;;;;;;;;;;4994430;28;20222;-76
2022/02/03 15:20:25;;;;;;;10.60;9.10;;;;;;;;;;4976675;28;20222;-77
2022/02/03 15:22:53;;;;;;;9.70;8.70;;;;;;;;;;4993185;28;20705;-75
2022/02/03 15:25:19;;;;;;;10.33;8.80;;;;;;;;;;4993180;28;20244;-76
2022/02/03 15:27:47;;;;;;;8.90;8.00;;;;;;;;;;4977336;28;20229;-75
2022/02/03 15:30:14;;;;;;;10.33;8.73;;;;;;;;;;4976435;28;20237;-75
2022/02/03 15:32:42;;;;;;;11.33;9.27;;;;;;;;;;4993929;28;20651;-74
2022/02/03 15:35:17;;;;;;;9.63;8.63;;;;;;;;;;4958454;28;20287;-75
2022/02/03 15:37:45;;;;;;;10.07;9.07;;;;;;;;;;4977530;28;20214;-74
2022/02/03 15:40:17;;;;;;;10.80;9.70;;;;;;;;;;4961145;28;20762;-74
2022/02/03 15:42:53;;;;;;;11.73;9.43;;;;;;;;;;4962244;28;20496;-75
2022/02/03 15:45:21;;;;;;;10.27;9.17;;;;;;;;;;4993291;28;20674;-75
2022/02/03 15:48:00;;;;;;;10.60;9.13;;;;;;;;;;4976976;28;20217;-75
2022/02/03 16:04:00;;;;;;;9.93;8.50;;;;;;;;;;4992183;28;20228;-76
2022/02/03 16:17:17;;;;;;;13.33;10.77;;;;;;;;;;4991369;28;20229;-74
2022/02/03 16:20:08;;;;;;;11.40;9.80;;;;;;;;;;4993525;28;20237;-73
2022/02/03 16:22:56;;;;;;;12.13;10.27;;;;;;;;;;4989257;28;20222;-73
2022/02/03 16:52:49;;;;;;;11.37;10.17;;;;;;;;;;4974143;28;20233;-76
2022/02/03 16:55:16;;;;;;;13.37;10.87;;;;;;;;;;4964130;28;20221;-74
2022/02/03 16:57:44;;;;;;;12.33;11.03;;;;;;;;;;4977205;28;20273;-74
2022/02/03 17:00:15;;;;;;;12.73;11.23;;;;;;;;;;4962062;28;20234;-73
2022/02/03 17:02:41;;;;;;;14.33;11.07;;;;;;;;;;4991095;28;20604;-75
2022/02/03 17:05:09;;;;;;;13.17;11.33;;;;;;;;;;4990677;28;20308;-74
2022/02/03 17:07:35;;;;;;;13.23;10.47;;;;;;;;;;4975061;28;20333;-74
2022/02/03 17:10:04;;;;;;;12.50;11.20;;;;;;;;;;4954440;28;20234;-74
2022/02/03 17:12:34;;;;;;;17.47;12.00;;;;;;;;;;4971227;28;20218;-73
2022/02/03 17:15:00;;;;;;;13.90;12.17;;;;;;;;;;4987805;28;20232;-72
2022/02/03 17:17:30;;;;;;;13.53;12.13;;;;;;;;;;4992141;28;20244;-74
2022/02/03 17:20:01;;;;;;;16.90;12.53;;;;;;;;;;4975324;28;20670;-73
2022/02/03 17:22:32;;;;;;;15.47;12.40;;;;;;;;;;4989731;28;20217;-74
2022/02/03 17:25:15;;;;;;;18.60;13.87;;;;;;;;;;4990529;28;20254;-74
2022/02/03 17:27:50;;;;;;;14.60;12.57;;;;;;;;;;4990946;28;20695;-75
2022/02/03 17:30:30;;;;;;;15.03;12.47;;;;;;;;;;4991061;28;20232;-74
2022/02/03 18:03:48;;;;;;;15.47;13.57;;;;;;;;;;5000402;28;20225;-72
2022/02/03 18:09:06;;;;;;;16.70;13.93;;;;;;;;;;4994134;28;20228;-73
2022/02/03 18:25:45;;;;;;;17.10;13.97;;;;;;;;;;4976006;28;20233;-73
2022/02/03 18:29:25;;;;;;;18.07;14.40;;;;;;;;;;4986902;28;21007;-73
2022/02/03 18:30:55;;;;;;;15.50;13.73;;;;;;;;;;4995137;28;20668;-73
2022/02/03 18:36:18;;;;;;;18.67;16.00;;;;;;;;;;4985581;28;20640;-75
2022/02/03 18:52:32;;;;;;;25.93;20.53;;;;;;;;;;4978286;28;20230;-72
2022/02/03 18:55:09;;;;;;;23.03;19.27;;;;;;;;;;4994109;28;20212;-74
2022/02/03 18:57:52;;;;;;;23.07;18.47;;;;;;;;;;4998014;28;20217;-74
2022/02/03 19:00:40;;;;;;;24.60;20.07;;;;;;;;;;5000886;28;20300;-73
2022/02/03 19:09:23;;;;;;;24.50;18.80;;;;;;;;;;4991056;28;20227;-75
2022/02/03 20:05:57;;;;;;;30.13;26.80;;;;;;;;;;4991567;28;20245;-73
2022/02/03 20:08:29;;;;;;;32.57;28.23;;;;;;;;;;5004047;28;20751;-72
2022/02/03 20:10:57;;;;;;;32.40;27.03;;;;;;;;;;4968723;28;20247;-73
2022/02/03 20:13:22;;;;;;;33.87;28.00;;;;;;;;;;4959079;28;20251;-74
2022/02/03 20:15:50;;;;;;;33.63;28.30;;;;;;;;;;4972051;28;20222;-73
2022/02/03 20:18:23;;;;;;;34.53;30.73;;;;;;;;;;4985082;28;20225;-73
2022/02/03 20:20:48;;;;;;;33.27;29.07;;;;;;;;;;4972341;28;20224;-73
2022/02/03 20:23:20;;;;;;;31.43;28.03;;;;;;;;;;4977388;28;20229;-73
2022/02/03 20:25:56;;;;;;;34.13;30.00;;;;;;;;;;4992363;28;20301;-73
2022/02/03 20:28:22;;;;;;;36.73;28.23;;;;;;;;;;4972596;28;20352;-73
2022/02/03 20:30:50;;;;;;;37.53;28.37;;;;;;;;;;4956447;28;20388;-73
2022/02/03 20:33:18;;;;;;;32.47;27.17;;;;;;;;;;4956148;28;20714;-74
2022/02/03 20:35:46;;;;;;;33.60;29.13;;;;;;;;;;4991978;28;20233;-72
2022/02/03 20:38:14;;;;;;;33.23;28.73;;;;;;;;;;4974992;28;20332;-72
2022/02/03 20:40:43;;;;;;;33.13;28.20;;;;;;;;;;4993447;28;20703;-73
2022/02/03 20:43:09;;;;;;;32.40;27.27;;;;;;;;;;4990564;28;20221;-72
2022/02/03 20:45:37;;;;;;;32.93;28.67;;;;;;;;;;4991145;28;20727;-72
2022/02/03 20:48:03;;;;;;;33.60;27.53;;;;;;;;;;4991925;28;20240;-72
2022/02/03 20:50:28;;;;;;;33.53;26.77;;;;;;;;;;4991913;28;20232;-72
2022/02/03 20:52:56;;;;;;;31.50;28.00;;;;;;;;;;4975099;28;20618;-73
2022/02/03 20:55:22;;;;;;;32.13;27.70;;;;;;;;;;4959122;28;20283;-73
2022/02/03 20:57:47;;;;;;;30.80;26.97;;;;;;;;;;4945169;28;20712;-73
2022/02/03 21:02:52;;;;;;;38.17;29.93;;;;;;;;;;4960238;28;20221;-75
2022/02/03 21:05:18;;;;;;;33.40;28.50;;;;;;;;;;4990656;28;20232;-76
2022/02/03 21:07:44;;;;;;;33.73;28.40;;;;;;;;;;4975248;28;20214;-73
2022/02/03 21:10:13;;;;;;;30.90;27.57;;;;;;;;;;4990763;28;20276;-72
2022/02/03 21:12:44;;;;;;;32.60;27.17;;;;;;;;;;4991422;28;20275;-72
2022/02/03 21:15:14;;;;;;;31.77;27.70;;;;;;;;;;4975533;28;20231;-73
2022/02/03 21:17:42;;;;;;;31.30;27.23;;;;;;;;;;4967618;28;20713;-73
2022/02/03 21:20:14;;;;;;;30.77;27.03;;;;;;;;;;4970999;28;20238;-74
2022/02/03 21:22:44;;;;;;;32.17;27.27;;;;;;;;;;4956321;28;20688;-73
2022/02/03 21:25:19;;;;;;;31.93;27.37;;;;;;;;;;4971563;28;20218;-74
2022/02/03 21:27:52;;;;;;;33.93;27.80;;;;;;;;;;4960207;28;20220;-73
2022/02/03 21:30:19;;;;;;;32.77;27.17;;;;;;;;;;4990651;28;20312;-74
2022/02/03 21:32:44;;;;;;;31.90;26.47;;;;;;;;;;4940364;28;20214;-73
2022/02/03 21:35:10;;;;;;;28.97;25.87;;;;;;;;;;5001664;28;20254;-73
2022/02/03 21:37:37;;;;;;;29.70;26.03;;;;;;;;;;4990991;28;20710;-73
2022/02/03 21:40:03;;;;;;;32.20;26.93;;;;;;;;;;4973896;28;20313;-72
2022/02/03 21:42:34;;;;;;;31.93;27.73;;;;;;;;;;4990563;28;20244;-73
2022/02/03 21:45:02;;;;;;;31.33;26.97;;;;;;;;;;4958877;28;20227;-73
2022/02/03 21:47:31;;;;;;;31.17;27.87;;;;;;;;;;4968440;28;20229;-73
2022/02/03 21:49:59;;;;;;;29.63;25.63;;;;;;;;;;4955407;28;20299;-72
2022/02/03 21:52:33;;;;;;;32.53;27.50;;;;;;;;;;4954787;28;20206;-73
2022/02/03 21:54:59;;;;;;;32.20;26.90;;;;;;;;;;4955428;28;20230;-72
2022/02/03 21:57:25;;;;;;;29.07;25.63;;;;;;;;;;4959146;28;20232;-73
2022/02/03 21:59:52;;;;;;;30.57;26.10;;;;;;;;;;4990050;28;20719;-73
2022/02/03 22:02:19;;;;;;;31.37;26.63;;;;;;;;;;4973656;28;20241;-72
2022/02/03 22:04:45;;;;;;;30.90;27.27;;;;;;;;;;4974359;28;20217;-73
2022/02/03 22:07:10;;;;;;;30.60;26.70;;;;;;;;;;4990103;28;20730;-74
2022/02/03 22:09:39;;;;;;;29.93;26.47;;;;;;;;;;4990540;28;20245;-73
2022/02/03 22:12:11;;;;;;;29.80;26.03;;;;;;;;;;4989629;28;20221;-74
2022/02/03 22:14:39;;;;;;;33.47;27.13;;;;;;;;;;4948775;28;20748;-73
2022/02/03 22:17:06;;;;;;;32.10;26.53;;;;;;;;;;4938190;28;20237;-73
2022/02/03 22:19:39;;;;;;;34.77;27.07;;;;;;;;;;4938862;28;20715;-72
2022/02/03 22:22:17;;;;;;;31.10;26.93;;;;;;;;;;4973221;28;20233;-73
2022/02/03 22:28:07;;;;;;;31.10;26.50;;;;;;;;;;4990145;28;20308;-73
2022/02/03 22:38:58;;;;;;;32.53;26.77;;;;;;;;;;4922635;28;20235;-73
2022/02/03 22:44:25;;;;;;;30.43;25.80;;;;;;;;;;4975930;28;20225;-73
2022/02/03 22:49:35;;;;;;;32.10;26.90;;;;;;;;;;4990263;28;20300;-72
2022/02/03 22:52:03;;;;;;;32.17;27.50;;;;;;;;;;4973299;28;20225;-74
2022/02/03 22:54:32;;;;;;;32.57;25.20;;;;;;;;;;4957949;28;20228;-73
2022/02/03 22:57:02;;;;;;;31.97;27.20;;;;;;;;;;4958781;28;20217;-73
2022/02/03 23:01:55;;;;;;;29.63;26.43;;;;;;;;;;4972978;28;20279;-73
2022/02/03 23:04:21;;;;;;;29.37;25.87;;;;;;;;;;4989370;28;20221;-73
2022/02/03 23:06:53;;;;;;;32.73;27.07;;;;;;;;;;4957356;28;20221;-72
2022/02/03 23:09:36;;;;;;;32.13;26.67;;;;;;;;;;4990941;28;20741;-72
2022/02/03 23:12:09;;;;;;;30.73;25.70;;;;;;;;;;4993885;28;20213;-72
2022/02/03 23:20:09;;;;;;;31.27;25.83;;;;;;;;;;4993133;28;20252;-73
2022/02/03 23:22:37;;;;;;;29.67;25.57;;;;;;;;;;4993618;28;20232;-74
2022/02/03 23:25:09;;;;;;;29.80;26.03;;;;;;;;;;4976460;28;20295;-74
2022/02/03 23:30:18;;;;;;;32.77;26.20;;;;;;;;;;4978135;28;20591;-72
2022/02/03 23:32:44;;;;;;;32.40;26.03;;;;;;;;;;4977366;28;20225;-73
2022/02/03 23:37:43;;;;;;;28.27;24.93;;;;;;;;;;4984720;28;20232;-74
2022/02/03 23:45:33;;;;;;;28.20;24.30;;;;;;;;;;4979265;28;20609;-73
